createdAt,value
2018-06-04T00:01:10.317Z,5.87
2018-06-04T00:03:38.640Z,5.70
2018-06-04T00:06:06.965Z,5.67
2018-06-04T00:08:35.340Z,5.80
2018-06-04T00:11:03.736Z,8.47
2018-06-04T00:13:32.073Z,6.83
2018-06-04T00:16:00.382Z,6.43
2018-06-04T00:18:28.755Z,6.73
2018-06-04T00:20:57.065Z,6.27
2018-06-04T00:23:25.429Z,6.87
2018-06-04T00:25:53.792Z,5.73
2018-06-04T00:28:22.149Z,6.20
2018-06-04T00:30:50.538Z,6.20
2018-06-04T00:33:18.881Z,5.37
2018-06-04T00:35:47.468Z,6.00
2018-06-04T00:38:15.735Z,6.53
2018-06-04T00:40:44.106Z,5.77
2018-06-04T00:43:12.415Z,5.93
2018-06-04T00:45:40.749Z,6.00
2018-06-04T00:48:09.079Z,5.60
2018-06-04T00:50:37.500Z,8.43
2018-06-04T00:53:06.074Z,5.67
2018-06-04T00:55:44.377Z,6.10
2018-06-04T00:58:12.647Z,5.90
2018-06-04T01:00:41.067Z,5.97
2018-06-04T01:03:09.452Z,5.70
2018-06-04T01:05:37.903Z,9.23
2018-06-04T01:08:06.525Z,5.90
2018-06-04T01:10:34.936Z,6.53
2018-06-04T01:13:03.347Z,8.23
2018-06-04T01:15:31.697Z,7.27
2018-06-04T01:18:00.035Z,6.27
2018-06-04T01:20:28.831Z,5.70
2018-06-04T01:22:57.187Z,5.43
2018-06-04T01:25:25.527Z,7.07
2018-06-04T01:27:53.945Z,6.70
2018-06-04T01:30:22.232Z,7.70
2018-06-04T01:32:50.575Z,5.90
2018-06-04T01:35:18.913Z,6.20
2018-06-04T01:37:47.254Z,9.33
2018-06-04T01:40:15.677Z,6.47
2018-06-04T01:42:44.158Z,6.87
2018-06-04T01:45:12.462Z,6.47
2018-06-04T01:47:42.083Z,7.00
2018-06-04T01:50:10.374Z,8.77
2018-06-04T01:52:38.764Z,6.67
2018-06-04T01:55:07.111Z,6.40
2018-06-04T01:57:35.511Z,6.93
2018-06-04T02:00:03.985Z,7.10
2018-06-04T02:02:32.285Z,7.50
2018-06-04T02:05:00.638Z,7.20
2018-06-04T02:07:28.950Z,7.37
2018-06-04T02:09:57.425Z,7.43
2018-06-04T02:12:25.851Z,8.53
2018-06-04T02:14:54.225Z,6.73
2018-06-04T02:17:22.694Z,6.73
2018-06-04T02:19:51.222Z,6.93
2018-06-04T02:22:19.681Z,8.53
2018-06-04T02:24:48.033Z,9.10
2018-06-04T02:27:16.537Z,7.37
2018-06-04T02:29:44.956Z,7.40
2018-06-04T02:32:13.261Z,6.87
2018-06-04T02:34:41.617Z,6.43
2018-06-04T02:37:10.291Z,7.63
2018-06-04T02:39:38.570Z,7.90
2018-06-04T02:42:07.010Z,7.23
2018-06-04T02:44:35.662Z,9.70
2018-06-04T02:47:03.993Z,6.87
2018-06-04T02:49:32.508Z,9.70
2018-06-04T02:52:00.847Z,6.87
2018-06-04T02:54:29.441Z,6.60
2018-06-04T02:56:57.890Z,8.10
2018-06-04T02:59:26.248Z,7.57
2018-06-04T03:01:54.592Z,6.73
2018-06-04T03:04:22.919Z,6.40
2018-06-04T03:06:51.257Z,6.77
2018-06-04T03:09:19.729Z,6.43
2018-06-04T03:11:48.098Z,7.23
2018-06-04T03:14:16.417Z,7.70
2018-06-04T03:16:47.205Z,7.20
2018-06-04T03:19:16.589Z,5.50
2018-06-04T03:21:45.550Z,6.27
2018-06-04T03:24:13.898Z,5.87
2018-06-04T03:26:42.234Z,6.47
2018-06-04T03:29:10.581Z,6.87
2018-06-04T03:31:38.879Z,6.00
2018-06-04T03:34:07.240Z,6.77
2018-06-04T03:36:35.631Z,6.13
2018-06-04T03:39:06.143Z,6.60
2018-06-04T03:41:35.205Z,7.63
2018-06-04T03:44:03.673Z,9.10
2018-06-04T03:46:32.057Z,6.47
2018-06-04T03:49:00.471Z,6.83
2018-06-04T03:51:28.976Z,7.10
2018-06-04T03:53:57.418Z,6.67
2018-06-04T03:56:25.839Z,7.23
2018-06-04T03:58:54.339Z,5.70
2018-06-04T04:01:22.634Z,8.33
2018-06-04T04:03:51.634Z,6.80
2018-06-04T04:06:19.969Z,7.53
2018-06-04T04:08:48.354Z,6.33
2018-06-04T04:11:17.345Z,6.53
2018-06-04T04:13:45.772Z,7.80
2018-06-04T04:16:14.150Z,9.83
2018-06-04T04:18:42.482Z,8.93
2018-06-04T04:21:10.810Z,10.60
2018-06-04T04:23:39.164Z,11.23
2018-06-04T04:26:07.470Z,10.43
2018-06-04T04:28:35.972Z,23.37
2018-06-04T04:31:04.322Z,17.07
2018-06-04T04:33:32.711Z,16.50
2018-06-04T04:36:01.080Z,20.40
2018-06-04T04:38:29.410Z,21.10
2018-06-04T04:40:57.940Z,20.93
2018-06-04T04:43:26.505Z,15.33
2018-06-04T04:45:54.889Z,16.33
2018-06-04T04:48:23.283Z,12.37
2018-06-04T04:50:51.645Z,9.53
2018-06-04T04:53:20.024Z,15.30
2018-06-04T04:55:48.441Z,12.47
2018-06-04T04:58:16.767Z,12.13
2018-06-04T05:00:45.231Z,9.97
2018-06-04T05:03:13.670Z,10.77
2018-06-04T05:05:42.102Z,9.53
2018-06-04T05:08:10.562Z,9.47
2018-06-04T05:10:39.046Z,9.73
2018-06-04T05:13:07.427Z,7.30
2018-06-04T05:15:35.777Z,8.13
2018-06-04T05:18:04.218Z,11.40
2018-06-04T05:20:32.680Z,7.33
2018-06-04T05:23:00.965Z,9.63
2018-06-04T05:25:29.769Z,11.37
2018-06-04T05:27:58.143Z,9.87
2018-06-04T05:30:26.541Z,11.07
2018-06-04T05:32:54.943Z,14.97
2018-06-04T05:35:23.261Z,7.77
2018-06-04T05:37:51.563Z,10.80
2018-06-04T05:40:19.850Z,9.00
2018-06-04T05:42:48.199Z,12.23
2018-06-04T05:45:16.523Z,13.20
2018-06-04T05:47:44.865Z,9.17
2018-06-04T05:50:14.055Z,12.53
2018-06-04T05:52:42.325Z,11.07
2018-06-04T05:57:41.016Z,12.53
2018-06-04T06:00:10.001Z,11.83
2018-06-04T06:02:38.663Z,19.27
2018-06-04T06:05:07.427Z,9.00
2018-06-04T06:07:36.419Z,9.23
2018-06-04T06:10:05.399Z,12.73
2018-06-04T06:12:34.289Z,13.87
2018-06-04T06:15:02.662Z,16.07
2018-06-04T06:17:30.979Z,16.23
2018-06-04T06:19:59.742Z,17.47
2018-06-04T06:22:28.179Z,14.33
2018-06-04T06:24:56.784Z,14.63
2018-06-04T06:27:25.138Z,14.30
2018-06-04T06:29:53.392Z,13.07
2018-06-04T06:32:21.710Z,10.73
2018-06-04T06:34:49.998Z,8.37
2018-06-04T06:37:18.269Z,9.47
2018-06-04T06:39:46.656Z,9.50
2018-06-04T06:42:15.022Z,10.40
2018-06-04T06:44:43.424Z,11.80
2018-06-04T06:47:11.789Z,7.10
2018-06-04T06:49:40.254Z,9.57
2018-06-04T06:52:08.597Z,10.90
2018-06-04T06:54:37.000Z,10.47
2018-06-04T06:57:05.623Z,11.50
2018-06-04T06:59:33.898Z,11.80
2018-06-04T07:02:02.288Z,10.90
2018-06-04T07:04:30.491Z,10.08
2018-06-04T07:06:58.818Z,10.25
2018-06-04T07:09:27.164Z,9.60
2018-06-04T07:11:55.471Z,8.28
2018-06-04T07:14:23.798Z,9.85
2018-06-04T07:16:52.123Z,8.78
2018-06-04T07:19:20.501Z,10.20
2018-06-04T07:21:48.779Z,7.67
2018-06-04T07:24:17.255Z,9.13
2018-06-04T07:26:45.542Z,7.17
2018-06-04T07:29:13.905Z,8.13
2018-06-04T07:31:42.220Z,7.42
2018-06-04T07:34:10.581Z,9.83
2018-06-04T07:36:38.922Z,6.58
2018-06-04T07:39:11.427Z,8.70
2018-06-04T07:41:39.761Z,7.87
2018-06-04T07:44:08.045Z,9.85
2018-06-04T07:46:36.388Z,8.03
2018-06-04T07:49:04.797Z,6.33
2018-06-04T07:51:33.261Z,8.30
2018-06-04T07:54:01.691Z,6.37
2018-06-04T07:56:29.984Z,6.40
2018-06-04T07:58:58.255Z,8.35
2018-06-04T08:01:26.562Z,6.85
2018-06-04T08:03:54.885Z,6.17
2018-06-04T08:06:23.328Z,6.87
2018-06-04T08:08:51.525Z,5.75
2018-06-04T08:11:19.922Z,6.90
2018-06-04T08:13:48.240Z,8.43
2018-06-04T08:16:16.531Z,6.85
2018-06-04T08:18:44.881Z,6.75
2018-06-04T08:21:13.160Z,5.78
2018-06-04T08:23:41.428Z,7.30
2018-06-04T08:26:09.803Z,8.70
2018-06-04T08:28:38.213Z,7.72
2018-06-04T08:31:06.561Z,7.03
2018-06-04T08:33:34.874Z,5.22
2018-06-04T08:36:03.226Z,4.72
2018-06-04T08:38:31.673Z,6.80
2018-06-04T08:40:59.854Z,6.30
2018-06-04T08:43:28.142Z,6.15
2018-06-04T08:45:56.620Z,5.28
2018-06-04T08:48:24.898Z,6.05
2018-06-04T08:50:53.256Z,6.47
2018-06-04T08:53:21.681Z,4.87
2018-06-04T08:55:49.966Z,5.65
2018-06-04T08:58:18.240Z,6.35
2018-06-04T09:00:46.504Z,6.00
2018-06-04T09:03:14.891Z,7.22
2018-06-04T09:05:44.113Z,7.08
2018-06-04T09:08:12.453Z,5.42
2018-06-04T09:10:40.783Z,6.25
2018-06-04T09:13:09.113Z,7.20
2018-06-04T09:15:37.424Z,4.90
2018-06-04T09:18:05.804Z,7.37
2018-06-04T09:20:34.167Z,5.05
2018-06-04T09:23:02.480Z,4.50
2018-06-04T09:25:30.892Z,5.30
2018-06-04T09:27:59.348Z,4.92
2018-06-04T09:30:27.818Z,6.10
2018-06-04T09:32:56.137Z,5.65
2018-06-04T09:35:24.429Z,4.80
2018-06-04T09:37:52.804Z,4.33
2018-06-04T09:40:21.052Z,5.90
2018-06-04T09:42:49.334Z,4.95
2018-06-04T09:45:17.594Z,5.00
2018-06-04T09:47:45.915Z,5.33
2018-06-04T09:50:14.199Z,5.25
2018-06-04T09:52:42.493Z,5.10
2018-06-04T09:55:10.835Z,5.20
2018-06-04T09:57:39.135Z,5.37
2018-06-04T10:00:07.676Z,5.65
2018-06-04T10:02:35.904Z,4.83
2018-06-04T10:05:04.311Z,4.30
2018-06-04T10:07:32.663Z,4.22
2018-06-04T10:10:00.962Z,4.22
2018-06-04T10:12:29.292Z,4.40
2018-06-04T10:14:57.908Z,4.45
2018-06-04T10:17:26.172Z,5.15
2018-06-04T10:19:54.548Z,3.58
2018-06-04T10:22:22.834Z,4.37
2018-06-04T10:24:51.218Z,10.63
2018-06-04T10:27:19.643Z,5.92
2018-06-04T10:29:48.129Z,3.90
2018-06-04T10:32:16.532Z,4.40
2018-06-04T10:34:44.833Z,5.35
2018-06-04T10:37:13.210Z,3.92
2018-06-04T10:39:41.516Z,3.35
2018-06-04T10:42:09.798Z,4.60
2018-06-04T10:44:38.147Z,3.92
2018-06-04T10:47:06.425Z,3.02
2018-06-04T10:49:34.672Z,2.72
2018-06-04T10:52:03.032Z,4.15
2018-06-04T10:54:31.384Z,3.62
2018-06-04T10:56:59.675Z,3.10
2018-06-04T10:59:28.008Z,2.83
2018-06-04T11:01:56.385Z,2.80
2018-06-04T11:04:24.657Z,2.60
2018-06-04T11:06:52.937Z,2.90
2018-06-04T11:09:21.289Z,2.83
2018-06-04T11:11:49.618Z,2.92
2018-06-04T11:14:17.961Z,3.25
2018-06-04T11:16:46.361Z,5.05
2018-06-04T11:19:14.714Z,6.80
2018-06-04T11:21:43.101Z,3.08
2018-06-04T11:24:11.743Z,3.33
2018-06-04T11:26:40.045Z,3.37
2018-06-04T11:29:08.393Z,3.27
2018-06-04T11:31:36.693Z,4.37
2018-06-04T11:34:05.047Z,3.15
2018-06-04T11:36:33.401Z,4.67
2018-06-04T11:39:01.781Z,2.98
2018-06-04T11:41:30.105Z,3.25
2018-06-04T11:43:58.434Z,6.78
2018-06-04T11:46:26.697Z,3.10
2018-06-04T11:48:55.154Z,4.00
2018-06-04T11:51:23.598Z,3.65
2018-06-04T11:53:51.947Z,4.60
2018-06-04T11:56:20.380Z,3.17
2018-06-04T11:58:48.745Z,3.10
2018-06-04T12:01:17.082Z,3.20
2018-06-04T12:03:45.389Z,3.77
2018-06-04T12:06:13.782Z,3.25
2018-06-04T12:08:42.543Z,3.20
2018-06-04T12:11:10.844Z,3.60
2018-06-04T12:13:39.204Z,3.20
2018-06-04T12:16:07.545Z,2.83
2018-06-04T12:18:35.920Z,2.87
2018-06-04T12:21:04.192Z,3.83
2018-06-04T12:23:32.514Z,3.15
2018-06-04T12:26:00.877Z,3.47
2018-06-04T12:28:29.158Z,3.80
2018-06-04T12:30:57.489Z,3.35
2018-06-04T12:33:25.793Z,3.27
2018-06-04T12:35:54.105Z,4.80
2018-06-04T12:38:22.402Z,3.02
2018-06-04T12:40:50.739Z,4.50
2018-06-04T12:43:19.093Z,3.25
2018-06-04T12:45:47.467Z,2.90
2018-06-04T12:48:15.868Z,4.03
2018-06-04T12:50:44.219Z,2.75
2018-06-04T12:53:12.541Z,3.00
2018-06-04T12:55:40.893Z,3.10
2018-06-04T12:58:09.197Z,3.00
2018-06-04T13:00:37.641Z,3.50
2018-06-04T13:03:06.033Z,3.65
2018-06-04T13:05:34.456Z,4.75
2018-06-04T13:08:02.831Z,3.20
2018-06-04T13:10:31.163Z,3.17
2018-06-04T13:12:59.547Z,3.25
2018-06-04T13:15:28.093Z,3.25
2018-06-04T13:17:56.389Z,3.10
2018-06-04T13:20:24.724Z,3.00
2018-06-04T13:22:53.073Z,3.05
2018-06-04T13:25:21.424Z,3.02
2018-06-04T13:27:49.726Z,2.83
2018-06-04T13:30:18.050Z,3.60
2018-06-04T13:32:46.385Z,3.30
2018-06-04T13:35:14.692Z,3.52
2018-06-04T13:37:43.014Z,3.45
2018-06-04T13:40:11.313Z,2.95
2018-06-04T13:42:39.679Z,2.80
2018-06-04T13:45:08.350Z,2.72
2018-06-04T13:47:36.931Z,4.35
2018-06-04T13:50:05.280Z,2.90
2018-06-04T13:52:33.611Z,3.00
2018-06-04T13:55:01.936Z,3.12
2018-06-04T13:57:30.277Z,3.50
2018-06-04T13:59:58.701Z,2.70
2018-06-04T14:02:27.044Z,3.35
2018-06-04T14:04:55.343Z,4.30
2018-06-04T14:07:23.662Z,3.12
2018-06-04T14:09:52.045Z,2.72
2018-06-04T14:12:20.428Z,3.00
2018-06-04T14:14:48.758Z,3.20
2018-06-04T14:17:17.013Z,3.52
2018-06-04T14:19:45.358Z,3.55
2018-06-04T14:22:13.717Z,3.33
2018-06-04T14:24:41.987Z,3.55
2018-06-04T14:27:10.463Z,3.67
2018-06-04T14:29:38.811Z,4.05
2018-06-04T14:32:07.186Z,5.47
2018-06-04T14:34:35.459Z,5.17
2018-06-04T14:37:03.781Z,4.12
2018-06-04T14:39:32.193Z,5.45
2018-06-04T14:42:00.519Z,3.30
2018-06-04T14:44:28.795Z,20.15
2018-06-04T14:46:57.263Z,3.30
2018-06-04T14:49:25.580Z,11.60
2018-06-04T14:51:53.921Z,4.20
2018-06-04T14:54:22.284Z,3.22
2018-06-04T14:56:50.695Z,3.83
2018-06-04T14:59:19.072Z,14.07
2018-06-04T15:01:47.368Z,4.10
2018-06-04T15:04:15.753Z,3.87
2018-06-04T15:06:44.166Z,4.55
2018-06-04T15:09:12.562Z,4.40
2018-06-04T15:11:43.225Z,4.20
2018-06-04T15:14:11.700Z,5.40
2018-06-04T15:16:39.966Z,4.22
2018-06-04T15:19:08.328Z,5.03
2018-06-04T15:21:36.752Z,3.60
2018-06-04T15:24:05.082Z,4.50
2018-06-04T15:26:33.446Z,6.55
2018-06-04T15:29:01.842Z,3.65
2018-06-04T15:31:30.169Z,3.55
2018-06-04T15:33:58.514Z,3.33
2018-06-04T15:36:26.780Z,6.40
2018-06-04T15:38:55.132Z,10.32
2018-06-04T15:41:23.487Z,5.08
2018-06-04T15:43:51.889Z,3.80
2018-06-04T15:46:20.276Z,4.55
2018-06-04T15:48:48.694Z,3.77
2018-06-04T15:51:17.039Z,6.00
2018-06-04T15:53:45.396Z,4.15
2018-06-04T15:56:13.746Z,11.00
2018-06-04T15:58:42.153Z,25.60
2018-06-04T16:01:10.505Z,7.78
2018-06-04T16:03:38.873Z,8.05
2018-06-04T16:06:07.230Z,5.60
2018-06-04T16:08:35.579Z,5.05
2018-06-04T16:11:03.844Z,4.95
2018-06-04T16:13:32.280Z,4.12
2018-06-04T16:16:00.588Z,4.17
2018-06-04T16:18:29.448Z,4.58
2018-06-04T16:20:57.808Z,5.03
2018-06-04T16:23:27.039Z,7.60
2018-06-04T16:25:55.347Z,4.87
2018-06-04T16:28:23.738Z,5.53
2018-06-04T16:30:52.029Z,4.12
2018-06-04T16:33:20.412Z,5.08
2018-06-04T16:35:48.721Z,4.42
2018-06-04T16:38:17.008Z,5.53
2018-06-04T16:40:45.730Z,5.25
2018-06-04T16:43:14.017Z,4.67
2018-06-04T16:45:42.441Z,4.30
2018-06-04T16:48:10.766Z,4.58
2018-06-04T16:50:39.111Z,5.92
2018-06-04T16:53:07.745Z,4.28
2018-06-04T16:55:36.624Z,4.37
2018-06-04T16:58:05.281Z,4.58
2018-06-04T17:00:33.666Z,4.83
2018-06-04T17:03:01.988Z,5.87
2018-06-04T17:05:30.351Z,7.10
2018-06-04T17:07:58.822Z,5.97
2018-06-04T17:10:27.313Z,5.45
2018-06-04T17:12:55.697Z,4.85
2018-06-04T17:15:24.058Z,5.08
2018-06-04T17:17:52.513Z,5.87
2018-06-04T17:20:20.984Z,6.25
2018-06-04T17:22:49.635Z,5.00
2018-06-04T17:25:17.970Z,4.60
2018-06-04T17:27:46.397Z,6.62
2018-06-04T17:30:14.708Z,4.22
2018-06-04T17:32:43.097Z,5.10
2018-06-04T17:35:11.389Z,4.37
2018-06-04T17:37:40.395Z,6.55
2018-06-04T17:40:08.715Z,6.20
2018-06-04T17:42:37.042Z,6.75
2018-06-04T17:45:05.442Z,5.00
2018-06-04T17:47:33.682Z,4.85
2018-06-04T17:50:02.069Z,4.85
2018-06-04T17:52:32.877Z,8.60
2018-06-04T17:55:01.355Z,7.00
2018-06-04T17:57:29.830Z,10.00
2018-06-04T17:59:58.274Z,7.60
2018-06-04T18:02:26.760Z,6.00
2018-06-04T18:04:55.055Z,5.55
2018-06-04T18:07:23.468Z,20.20
2018-06-04T18:09:52.042Z,14.07
2018-06-04T18:12:20.418Z,11.40
2018-06-04T18:20:43.857Z,6.83
2018-06-04T18:23:12.196Z,10.43
2018-06-04T18:25:40.694Z,11.85
2018-06-04T18:28:09.054Z,13.85
2018-06-04T18:30:37.434Z,8.53
2018-06-04T18:33:05.875Z,13.85
2018-06-04T18:35:34.316Z,9.53
2018-06-04T18:38:02.836Z,13.43
2018-06-04T18:40:31.487Z,13.10
2018-06-04T18:42:59.929Z,8.80
2018-06-04T18:45:28.585Z,10.80
2018-06-04T18:47:57.810Z,11.68
2018-06-04T18:50:26.556Z,10.18
2018-06-04T18:52:54.874Z,15.83
2018-06-04T18:55:23.356Z,9.30
2018-06-04T18:57:51.847Z,12.65
2018-06-04T19:00:20.581Z,12.37
2018-06-04T19:02:48.981Z,11.40
2018-06-04T19:05:17.422Z,10.70
2018-06-04T19:07:45.650Z,9.65
2018-06-04T19:10:13.967Z,10.40
2018-06-04T19:12:42.727Z,9.40
2018-06-04T19:15:11.105Z,9.90
2018-06-04T19:17:39.468Z,11.97
2018-06-04T19:20:07.835Z,11.65
2018-06-04T19:22:36.694Z,10.18
2018-06-04T19:25:05.260Z,6.40
2018-06-04T19:27:33.702Z,5.90
2018-06-04T19:30:02.181Z,5.65
2018-06-04T19:32:31.677Z,7.00
2018-06-04T19:35:00.046Z,7.12
2018-06-04T19:37:28.553Z,6.40
2018-06-04T19:39:56.890Z,6.35
2018-06-04T19:42:25.333Z,7.75
2018-06-04T19:44:53.769Z,7.15
2018-06-04T19:47:22.152Z,7.40
2018-06-04T19:49:50.500Z,6.45
2018-06-04T19:52:18.883Z,5.90
2018-06-04T19:54:47.201Z,6.47
2018-06-04T19:57:15.676Z,6.93
2018-06-04T19:59:44.271Z,6.63
2018-06-04T20:02:12.691Z,6.30
2018-06-04T20:04:41.008Z,6.63
2018-06-04T20:07:09.336Z,7.13
2018-06-04T20:09:38.028Z,8.47
2018-06-04T20:12:06.714Z,8.40
2018-06-04T20:14:35.096Z,6.17
2018-06-04T20:17:03.443Z,8.50
2018-06-04T20:19:31.770Z,6.83
2018-06-04T20:22:00.335Z,6.97
2018-06-04T20:24:28.870Z,6.60
2018-06-04T20:26:57.434Z,6.90
2018-06-04T20:29:25.825Z,10.90
2018-06-04T20:31:54.219Z,8.80
2018-06-04T20:34:22.503Z,9.10
2018-06-04T20:36:50.940Z,6.43
2018-06-04T20:39:19.348Z,9.67
2018-06-04T20:41:47.848Z,7.13
2018-06-04T20:44:16.150Z,6.77
2018-06-04T20:46:44.679Z,6.80
2018-06-04T20:49:12.969Z,6.40
2018-06-04T20:51:41.398Z,6.73
2018-06-04T20:54:10.017Z,6.73
2018-06-04T20:56:38.439Z,6.80
2018-06-04T20:59:06.988Z,7.00
2018-06-04T21:01:35.345Z,8.47
2018-06-04T21:04:03.745Z,6.40
2018-06-04T21:06:32.121Z,7.40
2018-06-04T21:09:00.483Z,7.10
2018-06-04T21:11:28.772Z,7.40
2018-06-04T21:13:57.258Z,6.73
2018-06-04T21:16:26.798Z,6.83
2018-06-04T21:18:55.455Z,7.40
2018-06-04T21:21:23.774Z,7.27
2018-06-04T21:23:53.772Z,5.93
2018-06-04T21:26:22.187Z,8.00
2018-06-04T21:28:50.642Z,9.20
2018-06-04T21:31:19.191Z,8.80
2018-06-04T21:33:47.604Z,9.67
2018-06-04T21:36:16.032Z,6.70
2018-06-04T21:38:45.078Z,8.40
2018-06-04T21:41:14.475Z,7.63
2018-06-04T21:43:48.524Z,7.37
2018-06-04T21:46:17.044Z,7.57
2018-06-04T21:48:48.453Z,8.63
2018-06-04T21:51:18.534Z,6.87
2018-06-04T21:53:47.508Z,7.77
2018-06-04T21:56:15.878Z,9.67
2018-06-04T21:58:45.474Z,7.50
2018-06-04T22:01:13.836Z,6.67
2018-06-04T22:03:42.240Z,8.43
2018-06-04T22:06:10.633Z,7.17
2018-06-04T22:08:38.963Z,8.40
2018-06-04T22:11:07.447Z,7.27
2018-06-04T22:13:35.759Z,7.37
2018-06-04T22:16:04.121Z,9.17
2018-06-04T22:18:32.519Z,8.43
2018-06-04T22:21:00.944Z,12.37
2018-06-04T22:23:30.137Z,7.67
2018-06-04T22:25:58.525Z,7.63
2018-06-04T22:28:26.982Z,8.63
2018-06-04T22:30:55.348Z,8.60
2018-06-04T22:33:23.611Z,9.10
2018-06-04T22:35:52.069Z,6.93
2018-06-04T22:38:20.407Z,7.80
2018-06-04T22:40:48.710Z,7.30
2018-06-04T22:43:17.092Z,7.70
2018-06-04T22:45:45.648Z,7.40
2018-06-04T22:48:13.967Z,7.77
2018-06-04T22:50:42.243Z,7.00
2018-06-04T22:53:10.564Z,7.40
2018-06-04T22:55:38.887Z,7.33
2018-06-04T22:58:07.222Z,8.83
2018-06-04T23:00:35.643Z,7.27
2018-06-04T23:03:04.041Z,8.43
2018-06-04T23:05:32.353Z,6.90
2018-06-04T23:08:00.753Z,6.87
2018-06-04T23:10:29.042Z,8.17
2018-06-04T23:12:57.397Z,6.40
2018-06-04T23:15:25.750Z,6.77
2018-06-04T23:17:54.128Z,7.00
2018-06-04T23:20:22.433Z,6.53
2018-06-04T23:22:50.784Z,7.23
2018-06-04T23:25:19.103Z,7.20
2018-06-04T23:27:47.457Z,6.80
2018-06-04T23:30:15.845Z,8.33
2018-06-04T23:32:44.167Z,7.53
2018-06-04T23:35:12.489Z,6.83
2018-06-04T23:37:40.778Z,9.30
2018-06-04T23:40:09.109Z,8.30
2018-06-04T23:42:37.478Z,9.37
2018-06-04T23:45:05.837Z,11.50
2018-06-04T23:47:34.288Z,7.63
2018-06-04T23:50:02.712Z,8.67
2018-06-04T23:52:31.074Z,7.47
2018-06-04T23:54:59.456Z,7.93
2018-06-04T23:57:28.342Z,7.70
2018-06-04T23:59:57.031Z,8.27
